Strona główna
METAR-TAF:

METAR-TAF

Lotnisko :

Twin County Airport

Galax / Hillsville, Wirginia, Stany Zjednoczone

Szerokość geograficzna: 36-46N, Długość geograficzna: 080-49W, wysokość: 834 m

Aktualna obserwacja pogody

Raport powstał 19 minut temu, godzina 21:35 UTC
Wiatr 9 kt od zachodnio-północny zachód w porywach dochodzący do 14 kt
Temperatura 21°C
Wilgotność 40%
Ciśnienie 1017 hPa
Widzialność: 16.1 km
bezchmurnie

METAR: KHLX 062135Z AUTO 30009G14KT 10SM CLR 21/07 A3004 RMK AO2 LTG DSNT SE T02100067

czas: 17:54 (21:54 UTC)


TAF: brakujący

Obserwacja i prognoza pogody dla ponad 4000 lotnisk (raport METAR i TAF).

Dostępne stacje oznaczono żółtymi i czerwonymi punktami na mapie.

Najedź kursorem aby zobaczyć nazwę stacji.

Kliknij aby zobaczyć obserwacje i prognozy pogody.

Aby zmienić mapę: kliknij na zielony przycisk z czarnym krzyżykiem, aby powiększyć; na zielony przycisk z myślnikiem, aby pomniejszyć; na zielone strzałki, aby przejść do map sąsiednich.


METAR-TAF: